Time;durP1;ratioP1;P1;durP2;ratioP2;P2;SDS_P1;SDS_P2;PMS_P1;PMS_P2;Temp;Humidity;BMP_temperature;BMP_pressure;BME280_temperature;BME280_humidity;BME280_pressure;Samples;Min_cycle;Max_cycle;Signal;HPM_P1;HPM_P2
2021/10/06 00:00:59;;;;;;;6.97;5.03;;;12.40;99.90;;;;;;5040598;28;20827;-77
2021/10/06 00:03:25;;;;;;;6.70;6.10;;;12.40;99.90;;;;;;5043195;28;20474;-77
2021/10/06 00:05:52;;;;;;;6.17;5.77;;;12.40;99.90;;;;;;5042515;28;20189;-77
2021/10/06 00:08:18;;;;;;;6.07;5.57;;;12.40;99.90;;;;;;5041057;28;20178;-77
2021/10/06 00:10:43;;;;;;;6.63;5.87;;;12.50;99.90;;;;;;5043432;28;20432;-77
2021/10/06 00:13:09;;;;;;;8.13;5.47;;;12.50;99.90;;;;;;5040007;28;20296;-77
2021/10/06 00:15:36;;;;;;;5.67;5.27;;;12.50;99.90;;;;;;5043328;28;20185;-77
2021/10/06 00:18:01;;;;;;;6.30;5.80;;;12.40;99.90;;;;;;5040439;28;20581;-77
2021/10/06 00:20:27;;;;;;;5.50;5.10;;;12.40;99.90;;;;;;5041176;28;20531;-77
2021/10/06 00:22:53;;;;;;;7.00;6.50;;;12.40;99.90;;;;;;5043327;28;20205;-77
2021/10/06 00:25:18;;;;;;;4.90;4.50;;;12.40;99.90;;;;;;5040587;28;20619;-77
2021/10/06 00:27:44;;;;;;;5.10;4.80;;;12.40;99.90;;;;;;5040374;28;20180;-77
2021/10/06 00:30:10;;;;;;;6.60;5.90;;;12.40;99.90;;;;;;5038400;28;20196;-77
2021/10/06 00:32:36;;;;;;;6.57;5.97;;;12.40;99.90;;;;;;5041608;28;20189;-77
2021/10/06 00:35:02;;;;;;;6.07;5.57;;;12.40;99.90;;;;;;5041228;28;20449;-77
2021/10/06 00:37:27;;;;;;;6.40;5.43;;;12.40;99.90;;;;;;5054961;28;20193;-77
2021/10/06 00:39:53;;;;;;;5.67;5.17;;;12.40;99.90;;;;;;5041415;28;20467;-77
2021/10/06 00:42:18;;;;;;;6.57;5.97;;;12.30;99.90;;;;;;5041698;28;20201;-77
2021/10/06 00:44:44;;;;;;;6.77;5.77;;;12.40;99.90;;;;;;5039662;28;20190;-77
2021/10/06 00:47:12;;;;;;;6.83;6.17;;;12.40;99.90;;;;;;5041700;28;20260;-77
2021/10/06 00:49:37;;;;;;;5.20;4.77;;;12.40;99.90;;;;;;5041511;28;20181;-77
2021/10/06 00:52:03;;;;;;;8.87;6.50;;;12.40;99.90;;;;;;5040177;28;20742;-77
2021/10/06 00:54:29;;;;;;;5.93;5.40;;;12.30;99.90;;;;;;5042233;28;20178;-77
2021/10/06 00:56:54;;;;;;;6.30;5.80;;;12.30;99.90;;;;;;5040385;28;20193;-77
2021/10/06 00:59:20;;;;;;;6.87;6.00;;;12.30;99.90;;;;;;5039053;28;20254;-77
2021/10/06 01:01:46;;;;;;;7.07;5.60;;;12.30;99.90;;;;;;5039365;28;20193;-77
2021/10/06 01:04:12;;;;;;;5.60;5.07;;;12.30;99.90;;;;;;5040379;28;20189;-77
2021/10/06 01:06:37;;;;;;;5.73;5.23;;;12.30;99.90;;;;;;5041330;28;20305;-77
2021/10/06 01:09:04;;;;;;;6.03;5.33;;;12.40;99.90;;;;;;5042239;28;20522;-76
2021/10/06 01:11:30;;;;;;;10.93;6.23;;;12.40;99.90;;;;;;5040946;28;20224;-78
2021/10/06 01:13:57;;;;;;;10.77;5.50;;;12.20;99.90;;;;;;5041367;28;20903;-77
2021/10/06 01:16:23;;;;;;;6.60;6.00;;;12.30;99.90;;;;;;5039073;28;20435;-77
2021/10/06 01:18:49;;;;;;;6.73;5.30;;;12.20;99.90;;;;;;5040143;28;20982;-77
2021/10/06 01:21:16;;;;;;;7.23;5.97;;;12.20;99.90;;;;;;5038275;28;20778;-77
2021/10/06 01:23:43;;;;;;;8.43;6.30;;;12.20;99.90;;;;;;5039971;28;20202;-77
2021/10/06 01:26:11;;;;;;;8.33;7.40;;;12.10;99.90;;;;;;5040323;28;20463;-77
2021/10/06 01:28:36;;;;;;;8.20;6.17;;;12.10;99.90;;;;;;5039917;28;20435;-77
2021/10/06 01:31:02;;;;;;;11.00;7.20;;;12.10;99.90;;;;;;5040117;28;20428;-77
2021/10/06 01:33:28;;;;;;;11.13;6.73;;;12.10;99.90;;;;;;5039715;28;20182;-77
2021/10/06 01:35:54;;;;;;;10.57;6.43;;;12.10;99.90;;;;;;5038783;28;20235;-77
2021/10/06 01:38:20;;;;;;;9.90;6.47;;;12.10;99.90;;;;;;5038584;28;20189;-77
2021/10/06 01:40:45;;;;;;;8.50;6.90;;;12.10;99.90;;;;;;5038832;28;20192;-77
2021/10/06 01:43:11;;;;;;;6.47;5.87;;;12.10;99.90;;;;;;5039719;28;20654;-77
2021/10/06 01:45:40;;;;;;;11.93;7.90;;;12.10;99.90;;;;;;5038932;28;20610;-77
2021/10/06 01:48:09;;;;;;;9.70;7.80;;;12.10;99.90;;;;;;5041016;28;20747;-77
2021/10/06 01:50:37;;;;;;;9.43;7.60;;;12.20;99.90;;;;;;5038196;28;20426;-77
2021/10/06 01:53:05;;;;;;;9.83;7.27;;;12.20;99.90;;;;;;5039398;28;20522;-77
2021/10/06 01:55:32;;;;;;;12.83;8.77;;;12.10;99.90;;;;;;5040353;28;20439;-77
2021/10/06 01:58:00;;;;;;;9.60;6.90;;;12.20;99.90;;;;;;5037275;28;20451;-77
2021/10/06 02:00:26;;;;;;;11.03;6.73;;;12.10;99.90;;;;;;5037534;28;20765;-77
2021/10/06 02:02:53;;;;;;;8.03;6.80;;;12.10;99.90;;;;;;5040961;28;20467;-77
2021/10/06 02:05:18;;;;;;;13.30;7.00;;;12.20;99.90;;;;;;5039561;28;20429;-77
2021/10/06 02:07:44;;;;;;;7.20;6.50;;;12.10;99.90;;;;;;5039216;28;20776;-77
2021/10/06 02:10:10;;;;;;;8.10;7.40;;;12.20;99.90;;;;;;5038549;28;20733;-77
2021/10/06 02:12:36;;;;;;;10.23;7.50;;;12.20;99.90;;;;;;5039957;28;20534;-77
2021/10/06 02:15:03;;;;;;;10.27;7.20;;;12.20;99.90;;;;;;5039164;28;20192;-77
2021/10/06 02:17:28;;;;;;;7.97;6.20;;;12.20;99.90;;;;;;5038411;28;21351;-77
2021/10/06 02:19:54;;;;;;;7.23;6.67;;;12.20;99.90;;;;;;5038849;28;20590;-77
2021/10/06 02:22:20;;;;;;;11.30;7.70;;;12.20;99.90;;;;;;5039804;28;20200;-77
2021/10/06 02:24:45;;;;;;;8.37;6.43;;;12.20;99.90;;;;;;5039238;28;20626;-77
2021/10/06 02:27:11;;;;;;;6.87;6.27;;;12.20;99.90;;;;;;5039009;28;20523;-77
2021/10/06 02:29:37;;;;;;;10.57;7.10;;;12.10;99.90;;;;;;5038256;28;20205;-77
2021/10/06 02:32:03;;;;;;;7.60;6.90;;;12.10;99.90;;;;;;5040270;28;20256;-77
2021/10/06 02:34:28;;;;;;;11.20;7.63;;;12.00;99.90;;;;;;5038741;28;20190;-77
2021/10/06 02:36:54;;;;;;;7.50;6.77;;;12.10;99.90;;;;;;5036737;28;20447;-77
2021/10/06 02:39:20;;;;;;;10.77;7.30;;;12.00;99.90;;;;;;5039925;28;20182;-77
2021/10/06 02:41:46;;;;;;;7.90;6.73;;;12.00;99.90;;;;;;5039339;28;20759;-77
2021/10/06 02:44:12;;;;;;;8.70;7.10;;;12.10;99.90;;;;;;5040107;28;20188;-77
2021/10/06 02:46:38;;;;;;;7.50;6.80;;;12.10;99.90;;;;;;5036908;28;20224;-77
2021/10/06 02:49:03;;;;;;;7.80;6.67;;;12.10;99.90;;;;;;5040532;28;20913;-77
2021/10/06 02:51:29;;;;;;;6.17;5.30;;;12.10;99.90;;;;;;5041785;28;20177;-77
2021/10/06 02:53:55;;;;;;;11.90;6.97;;;12.10;99.90;;;;;;5039830;28;20189;-77
2021/10/06 02:56:21;;;;;;;8.00;6.87;;;12.10;99.90;;;;;;5043903;28;20201;-77
2021/10/06 02:58:47;;;;;;;14.73;7.10;;;12.10;99.90;;;;;;5042347;28;20192;-77
2021/10/06 03:01:12;;;;;;;12.63;7.83;;;12.20;99.90;;;;;;5041980;28;20493;-73
2021/10/06 03:03:38;;;;;;;7.23;6.40;;;12.10;99.90;;;;;;5041397;28;20233;-73
2021/10/06 03:06:04;;;;;;;6.93;6.30;;;12.10;99.90;;;;;;5042335;28;20607;-73
2021/10/06 03:08:30;;;;;;;7.23;5.83;;;12.10;99.90;;;;;;5041914;28;20635;-73
2021/10/06 03:10:55;;;;;;;8.20;6.50;;;12.10;99.90;;;;;;5042816;28;20526;-72
2021/10/06 03:13:21;;;;;;;7.40;6.20;;;12.00;99.90;;;;;;5043890;28;20177;-72
2021/10/06 03:15:47;;;;;;;5.80;5.20;;;12.00;99.90;;;;;;5041190;28;20614;-72
2021/10/06 03:18:12;;;;;;;8.17;5.40;;;12.00;99.90;;;;;;5042469;28;20741;-72
2021/10/06 03:20:38;;;;;;;6.93;5.23;;;11.90;99.90;;;;;;5043553;28;20632;-72
2021/10/06 03:23:05;;;;;;;5.63;5.17;;;11.90;99.90;;;;;;5041295;28;20200;-72
2021/10/06 03:25:31;;;;;;;11.37;7.87;;;11.90;99.90;;;;;;5040269;28;20839;-73
2021/10/06 03:27:57;;;;;;;8.70;5.50;;;11.80;99.90;;;;;;5043360;28;20473;-72
2021/10/06 03:30:23;;;;;;;6.83;6.13;;;11.70;99.90;;;;;;5041693;28;20518;-72
2021/10/06 03:32:48;;;;;;;7.27;6.30;;;11.70;99.90;;;;;;5043463;28;20185;-72
2021/10/06 03:35:18;;;;;;;5.23;4.70;;;11.70;99.90;;;;;;5042008;28;20182;-73
2021/10/06 03:37:44;;;;;;;9.40;6.90;;;11.70;99.90;;;;;;5041076;28;20177;-72
2021/10/06 03:40:10;;;;;;;9.10;5.30;;;11.60;99.90;;;;;;5043208;28;20427;-73
2021/10/06 03:42:36;;;;;;;6.27;5.73;;;11.60;99.90;;;;;;5043412;28;20929;-72
2021/10/06 03:45:04;;;;;;;6.00;5.60;;;11.60;99.90;;;;;;5041283;28;20757;-72
2021/10/06 03:47:29;;;;;;;7.27;6.47;;;11.50;99.90;;;;;;5042928;28;20182;-73
2021/10/06 03:49:55;;;;;;;8.17;7.23;;;11.50;99.90;;;;;;5040371;28;20437;-72
2021/10/06 03:52:21;;;;;;;7.00;6.30;;;11.50;99.90;;;;;;5042249;28;20606;-72
2021/10/06 03:54:46;;;;;;;9.60;6.20;;;11.50;99.90;;;;;;5042309;28;20638;-73
2021/10/06 03:57:12;;;;;;;8.07;7.00;;;11.40;99.90;;;;;;5042210;28;20189;-72
2021/10/06 03:59:38;;;;;;;9.00;8.10;;;11.50;99.90;;;;;;5043393;28;20189;-73
2021/10/06 04:02:03;;;;;;;11.17;6.50;;;11.40;99.90;;;;;;5041025;28;20185;-72
2021/10/06 04:04:29;;;;;;;8.20;7.27;;;11.40;99.90;;;;;;5042817;28;20248;-72
2021/10/06 04:06:54;;;;;;;10.73;5.60;;;11.40;99.90;;;;;;5040861;28;20182;-72
2021/10/06 04:09:20;;;;;;;9.10;7.40;;;11.40;99.90;;;;;;5043669;28;20267;-73
2021/10/06 04:11:46;;;;;;;10.07;5.43;;;11.30;99.90;;;;;;5041853;28;20193;-72
2021/10/06 04:14:11;;;;;;;6.37;5.77;;;11.30;99.90;;;;;;5042141;28;20260;-72
2021/10/06 04:16:37;;;;;;;6.93;6.23;;;11.30;99.90;;;;;;5040374;28;20537;-72
2021/10/06 04:19:03;;;;;;;5.70;5.20;;;11.20;99.90;;;;;;5041838;28;20196;-73
2021/10/06 04:21:28;;;;;;;11.53;6.83;;;11.20;99.90;;;;;;5041923;28;20193;-72
2021/10/06 04:23:54;;;;;;;10.67;7.80;;;11.20;99.90;;;;;;5040184;28;20210;-72
2021/10/06 04:26:20;;;;;;;7.17;5.87;;;11.20;99.90;;;;;;5041623;28;20690;-72
2021/10/06 04:28:45;;;;;;;8.00;5.90;;;11.20;99.90;;;;;;5039807;28;20213;-72
2021/10/06 04:31:11;;;;;;;7.80;5.93;;;11.20;99.90;;;;;;5040714;28;20192;-72
2021/10/06 04:33:37;;;;;;;11.30;6.00;;;11.20;99.90;;;;;;5039992;28;20188;-72
2021/10/06 04:36:03;;;;;;;6.63;6.00;;;11.20;99.90;;;;;;5042234;28;20173;-73
2021/10/06 04:38:28;;;;;;;9.97;5.93;;;11.20;99.90;;;;;;5038680;28;20174;-72
2021/10/06 04:40:54;;;;;;;6.53;6.03;;;11.20;99.90;;;;;;5039890;28;20763;-73
2021/10/06 04:43:20;;;;;;;5.80;5.30;;;11.20;99.90;;;;;;5039220;28;20220;-73
2021/10/06 04:45:45;;;;;;;5.27;4.77;;;11.20;99.90;;;;;;5040289;28;20572;-72
2021/10/06 04:48:11;;;;;;;7.77;5.40;;;11.20;99.90;;;;;;5041156;28;20177;-72
2021/10/06 04:50:37;;;;;;;5.57;5.07;;;11.10;99.90;;;;;;5037733;28;20184;-73
2021/10/06 04:53:04;;;;;;;12.87;6.00;;;11.10;99.90;;;;;;5038903;28;20240;-72
2021/10/06 04:55:30;;;;;;;9.03;5.70;;;11.10;99.90;;;;;;5040330;28;20184;-72
2021/10/06 04:57:58;;;;;;;5.87;5.37;;;11.00;99.90;;;;;;5037497;28;20443;-72
2021/10/06 05:00:24;;;;;;;9.57;6.70;;;11.00;99.90;;;;;;5040079;28;21092;-72
2021/10/06 05:02:50;;;;;;;10.07;6.50;;;11.00;99.90;;;;;;5041406;28;20456;-73
2021/10/06 05:05:16;;;;;;;8.03;6.70;;;11.00;99.90;;;;;;5041245;28;20431;-72
2021/10/06 05:07:41;;;;;;;5.70;5.03;;;10.90;99.90;;;;;;5041818;28;20651;-72
2021/10/06 05:10:07;;;;;;;6.00;5.40;;;10.90;99.90;;;;;;5039358;28;20529;-72
2021/10/06 05:12:33;;;;;;;7.80;5.90;;;10.90;99.90;;;;;;5041154;28;20209;-73
2021/10/06 05:14:59;;;;;;;6.20;5.70;;;10.90;99.90;;;;;;5038287;28;20432;-72
2021/10/06 05:17:24;;;;;;;8.63;6.37;;;10.90;99.90;;;;;;5039439;28;20676;-72
2021/10/06 05:19:50;;;;;;;5.83;5.37;;;10.90;99.90;;;;;;5040070;28;20553;-73
2021/10/06 05:22:16;;;;;;;5.33;4.93;;;10.90;99.90;;;;;;5038355;28;20232;-72
2021/10/06 05:24:41;;;;;;;5.77;4.70;;;10.80;99.90;;;;;;5037398;28;20607;-73
2021/10/06 05:27:07;;;;;;;6.47;5.40;;;10.80;99.90;;;;;;5038846;28;20240;-73
2021/10/06 05:29:33;;;;;;;6.23;5.57;;;10.80;99.90;;;;;;5039517;28;20434;-73
2021/10/06 05:32:03;;;;;;;6.33;4.90;;;10.70;99.90;;;;;;5038856;28;20174;-73
2021/10/06 05:34:30;;;;;;;9.20;5.30;;;10.70;99.90;;;;;;5041011;28;20462;-73
2021/10/06 05:36:57;;;;;;;5.30;4.20;;;10.70;99.90;;;;;;5040940;28;20436;-73
2021/10/06 05:39:23;;;;;;;7.80;6.00;;;10.70;99.90;;;;;;5036971;28;20424;-74
2021/10/06 05:41:49;;;;;;;5.67;5.17;;;10.70;99.90;;;;;;5038935;28;20493;-73
2021/10/06 05:44:14;;;;;;;6.13;5.50;;;10.70;99.90;;;;;;5036762;28;20185;-73
2021/10/06 05:46:40;;;;;;;7.77;4.90;;;10.70;99.90;;;;;;5037323;28;20181;-74
2021/10/06 05:49:05;;;;;;;6.23;5.63;;;10.60;99.90;;;;;;5039292;28;20192;-73
2021/10/06 05:51:31;;;;;;;5.47;4.97;;;10.60;99.90;;;;;;5038925;28;20506;-73
2021/10/06 05:53:57;;;;;;;5.57;5.10;;;10.60;99.90;;;;;;5038850;28;20177;-73
2021/10/06 05:56:22;;;;;;;10.10;5.77;;;10.60;99.90;;;;;;5038997;28;20189;-73
2021/10/06 05:58:48;;;;;;;5.67;5.10;;;10.60;99.90;;;;;;5038710;28;20185;-73
2021/10/06 06:01:14;;;;;;;6.00;5.50;;;10.60;99.90;;;;;;5039048;28;20186;-73
2021/10/06 06:03:39;;;;;;;6.07;5.20;;;10.60;99.90;;;;;;5039825;28;20292;-72
2021/10/06 06:06:05;;;;;;;5.67;5.27;;;10.70;99.90;;;;;;5039347;28;20184;-73
2021/10/06 06:08:31;;;;;;;4.90;4.60;;;10.70;99.90;;;;;;5035567;28;20174;-72
2021/10/06 06:10:57;;;;;;;4.87;4.40;;;10.70;99.90;;;;;;5039227;28;20431;-72
2021/10/06 06:13:22;;;;;;;5.53;4.90;;;10.70;99.90;;;;;;5039551;28;20742;-73
2021/10/06 06:15:52;;;;;;;5.30;4.90;;;10.70;99.90;;;;;;5041724;28;20180;-73
2021/10/06 06:18:18;;;;;;;6.17;5.57;;;10.70;99.90;;;;;;5039587;28;20238;-72
2021/10/06 06:20:44;;;;;;;8.53;5.83;;;10.70;99.90;;;;;;5041469;28;20434;-73
2021/10/06 06:23:09;;;;;;;7.03;4.80;;;10.70;99.90;;;;;;5039036;28;20464;-73
2021/10/06 06:25:35;;;;;;;6.00;5.40;;;10.70;99.90;;;;;;5044175;28;20201;-73
2021/10/06 06:28:00;;;;;;;7.23;4.80;;;10.70;99.90;;;;;;5045109;28;20173;-74
2021/10/06 06:30:26;;;;;;;5.67;5.10;;;10.70;99.90;;;;;;5046166;28;20177;-73
2021/10/06 06:32:53;;;;;;;4.53;4.13;;;10.80;99.90;;;;;;5044431;28;20752;-74
2021/10/06 06:35:18;;;;;;;5.10;4.70;;;10.80;99.90;;;;;;5046100;28;20208;-73
2021/10/06 06:37:44;;;;;;;6.03;5.07;;;10.90;99.90;;;;;;5045295;28;20469;-73
2021/10/06 06:40:10;;;;;;;6.50;4.67;;;10.90;99.90;;;;;;5044318;28;20178;-73
2021/10/06 06:42:36;;;;;;;5.40;4.90;;;10.90;99.90;;;;;;5045540;28;20205;-74
2021/10/06 06:45:03;;;;;;;7.00;4.80;;;10.90;99.90;;;;;;5043517;28;20756;-75
2021/10/06 06:47:28;;;;;;;7.30;5.27;;;10.90;99.90;;;;;;5043116;28;20173;-73
2021/10/06 06:49:54;;;;;;;5.27;4.77;;;10.90;99.90;;;;;;5045274;28;20431;-74
2021/10/06 06:52:20;;;;;;;4.30;3.90;;;10.90;99.90;;;;;;5045053;28;20623;-74
2021/10/06 06:54:46;;;;;;;6.60;5.00;;;10.90;99.90;;;;;;5041027;28;20190;-74
2021/10/06 06:57:11;;;;;;;5.60;4.27;;;10.90;99.90;;;;;;5039521;28;20193;-74
2021/10/06 06:59:37;;;;;;;5.17;4.77;;;10.90;99.90;;;;;;5043040;28;20269;-74
2021/10/06 07:02:03;;;;;;;4.60;4.20;;;11.00;99.90;;;;;;5044773;28;20210;-73
2021/10/06 07:04:29;;;;;;;7.90;5.60;;;11.00;99.90;;;;;;5045246;28;20639;-73
2021/10/06 07:06:57;;;;;;;4.80;4.40;;;11.00;99.90;;;;;;5042616;28;20991;-73
2021/10/06 07:09:26;;;;;;;4.43;4.03;;;11.00;99.90;;;;;;5044158;28;20246;-73
2021/10/06 07:11:52;;;;;;;5.53;4.00;;;11.00;99.90;;;;;;5043585;28;20762;-74
2021/10/06 07:14:18;;;;;;;5.00;4.50;;;11.00;99.90;;;;;;5043203;28;20992;-74
2021/10/06 07:16:44;;;;;;;5.90;4.73;;;11.10;99.90;;;;;;5040113;28;20431;-74
2021/10/06 07:19:10;;;;;;;4.40;4.10;;;11.20;99.90;;;;;;5043870;28;20759;-74
2021/10/06 07:21:36;;;;;;;4.73;4.17;;;11.20;99.90;;;;;;5042644;28;20189;-74
2021/10/06 07:24:02;;;;;;;4.20;3.80;;;11.20;99.90;;;;;;5042819;28;20459;-73
2021/10/06 07:26:27;;;;;;;6.47;4.33;;;11.30;99.90;;;;;;5040271;28;20174;-74
2021/10/06 07:28:53;;;;;;;12.03;4.70;;;11.30;99.90;;;;;;5041408;28;20619;-74
2021/10/06 07:31:19;;;;;;;4.50;4.20;;;11.30;99.90;;;;;;5037391;28;20174;-74
2021/10/06 07:33:46;;;;;;;4.40;3.83;;;11.40;99.90;;;;;;5040118;28;20195;-74
2021/10/06 07:36:12;;;;;;;4.27;4.03;;;11.40;99.90;;;;;;5040770;28;20212;-75
2021/10/06 07:38:38;;;;;;;8.10;4.33;;;11.40;99.90;;;;;;5041942;28;20458;-73
2021/10/06 07:41:03;;;;;;;5.70;4.57;;;11.40;99.90;;;;;;5040785;28;20204;-74
2021/10/06 07:43:29;;;;;;;6.50;3.90;;;11.50;99.90;;;;;;5040038;28;20196;-73
2021/10/06 07:45:56;;;;;;;6.10;3.80;;;11.50;99.90;;;;;;5041133;28;20644;-74
2021/10/06 07:48:22;;;;;;;5.23;4.50;;;11.50;99.90;;;;;;5040458;28;20551;-74
2021/10/06 07:50:48;;;;;;;3.87;3.57;;;11.50;99.90;;;;;;5042125;28;20496;-74
2021/10/06 07:53:13;;;;;;;5.93;4.10;;;11.60;99.90;;;;;;5043281;28;20244;-74
2021/10/06 07:55:39;;;;;;;4.80;3.63;;;11.60;99.90;;;;;;5042769;28;20199;-74
2021/10/06 07:58:05;;;;;;;3.23;3.00;;;11.70;99.90;;;;;;5039632;28;20205;-73
2021/10/06 08:00:30;;;;;;;6.07;3.20;;;11.70;99.90;;;;;;5039040;28;20232;-74
2021/10/06 08:02:56;;;;;;;5.97;3.83;;;11.80;99.90;;;;;;5040902;28;20229;-74
2021/10/06 08:05:21;;;;;;;3.87;3.30;;;11.90;99.90;;;;;;5039852;28;20189;-74
2021/10/06 08:07:47;;;;;;;4.00;3.30;;;12.00;99.90;;;;;;5040171;28;20177;-76
2021/10/06 08:10:13;;;;;;;7.00;3.27;;;12.00;99.90;;;;;;5040524;28;20181;-74
2021/10/06 08:12:38;;;;;;;4.63;4.23;;;12.10;99.90;;;;;;5039377;28;20209;-73
2021/10/06 08:15:05;;;;;;;4.90;3.57;;;12.10;99.90;;;;;;5041095;28;20178;-73
2021/10/06 08:17:31;;;;;;;3.70;3.30;;;12.20;99.90;;;;;;5039652;28;20192;-73
2021/10/06 08:19:56;;;;;;;3.53;3.27;;;12.40;99.90;;;;;;5040352;28;20439;-74
2021/10/06 08:22:22;;;;;;;4.00;2.90;;;12.40;99.90;;;;;;5037693;28;20205;-74
2021/10/06 08:24:49;;;;;;;3.43;2.93;;;12.50;99.90;;;;;;5040796;28;20224;-73
2021/10/06 08:27:17;;;;;;;2.73;2.33;;;12.50;99.90;;;;;;5040414;28;20177;-73
2021/10/06 08:29:43;;;;;;;2.60;2.40;;;12.50;99.90;;;;;;5041633;28;20839;-73
2021/10/06 08:32:08;;;;;;;3.27;2.40;;;12.60;99.90;;;;;;5040141;28;20921;-73
2021/10/06 08:34:34;;;;;;;3.73;2.90;;;12.80;99.90;;;;;;5040580;28;20202;-73
2021/10/06 08:37:00;;;;;;;3.90;2.77;;;12.90;99.90;;;;;;5042308;28;20730;-73
2021/10/06 08:39:26;;;;;;;3.13;2.93;;;12.90;99.90;;;;;;5043189;28;20235;-73
2021/10/06 08:41:52;;;;;;;3.33;2.77;;;12.90;99.90;;;;;;5042225;28;20501;-73
2021/10/06 08:44:21;;;;;;;3.80;3.27;;;13.10;99.90;;;;;;5043476;28;20471;-73
2021/10/06 08:46:46;;;;;;;4.43;3.70;;;13.20;99.90;;;;;;5039626;28;20177;-72
2021/10/06 08:49:12;;;;;;;3.30;2.90;;;13.20;99.90;;;;;;5039727;28;20427;-73
2021/10/06 08:51:38;;;;;;;3.07;2.87;;;13.30;99.90;;;;;;5040479;28;20243;-74
2021/10/06 08:54:03;;;;;;;4.90;3.30;;;13.40;99.90;;;;;;5039528;28;20232;-75
2021/10/06 08:56:29;;;;;;;3.33;2.73;;;13.30;99.90;;;;;;5041145;28;20300;-76
2021/10/06 08:58:55;;;;;;;2.70;2.50;;;13.30;99.90;;;;;;5041516;28;20182;-76
2021/10/06 09:01:26;;;;;;;2.67;2.47;;;13.30;99.90;;;;;;5043172;28;20188;-76
2021/10/06 09:04:03;;;;;;;3.03;2.83;;;13.40;99.90;;;;;;5043689;28;20455;-76
2021/10/06 09:06:42;;;;;;;4.17;2.80;;;13.50;99.90;;;;;;5041343;28;20425;-76
2021/10/06 09:09:18;;;;;;;2.20;2.10;;;13.70;99.90;;;;;;5044043;28;20408;-75
2021/10/06 09:11:52;;;;;;;2.70;2.40;;;13.80;99.90;;;;;;5043116;28;20866;-76
2021/10/06 09:14:19;;;;;;;2.17;2.00;;;14.00;99.90;;;;;;5044220;28;20820;-76
2021/10/06 09:16:46;;;;;;;4.63;2.97;;;14.10;99.90;;;;;;5042222;28;20751;-76
2021/10/06 09:19:32;;;;;;;2.10;2.00;;;14.10;99.90;;;;;;5044431;28;20495;-75
2021/10/06 09:21:58;;;;;;;3.27;2.10;;;14.00;99.90;;;;;;5048033;28;20439;-75
2021/10/06 09:24:44;;;;;;;3.13;2.43;;;14.00;99.90;;;;;;5040043;28;20734;-75
2021/10/06 09:27:10;;;;;;;2.30;2.20;;;14.00;99.90;;;;;;5039491;28;20482;-75
2021/10/06 09:29:50;;;;;;;4.17;2.30;;;14.00;99.90;;;;;;5039703;28;20501;-75
2021/10/06 09:32:30;;;;;;;3.33;2.30;;;14.00;99.90;;;;;;5039568;28;20188;-73
2021/10/06 09:35:04;;;;;;;3.27;2.07;;;14.00;99.90;;;;;;5041568;28;20440;-73
2021/10/06 09:37:30;;;;;;;5.57;2.30;;;14.10;99.90;;;;;;5039481;28;20494;-74
2021/10/06 09:39:56;;;;;;;2.37;2.17;;;14.10;99.90;;;;;;5039117;28;20888;-74
2021/10/06 09:42:22;;;;;;;2.00;1.80;;;14.20;99.90;;;;;;5041364;28;20557;-75
2021/10/06 09:44:56;;;;;;;2.53;2.10;;;14.40;99.90;;;;;;5043354;28;20839;-74
2021/10/06 09:47:23;;;;;;;6.33;1.87;;;14.60;99.90;;;;;;5040349;28;20889;-75
2021/10/06 09:49:57;;;;;;;1.90;1.80;;;14.80;99.90;;;;;;5040941;28;20425;-75
2021/10/06 09:52:27;;;;;;;1.80;1.70;;;15.00;99.90;;;;;;5038950;28;20466;-75
2021/10/06 09:54:56;;;;;;;2.00;1.90;;;15.20;99.90;;;;;;5040431;28;20435;-74
2021/10/06 09:57:34;;;;;;;2.17;1.80;;;15.30;99.90;;;;;;5045835;28;20467;-75
2021/10/06 10:00:10;;;;;;;2.37;2.10;;;15.20;99.90;;;;;;5047084;28;20439;-75
2021/10/06 10:02:36;;;;;;;2.63;1.83;;;15.20;99.90;;;;;;5050345;28;20450;-75
2021/10/06 10:05:04;;;;;;;4.10;2.10;;;15.10;99.90;;;;;;5049525;28;20517;-75
2021/10/06 10:07:30;;;;;;;3.13;1.50;;;15.20;99.90;;;;;;5049481;28;20442;-75
2021/10/06 10:09:56;;;;;;;4.83;1.90;;;15.10;99.90;;;;;;5049421;28;20424;-75
2021/10/06 10:12:24;;;;;;;1.73;1.63;;;15.10;99.90;;;;;;5051112;28;20184;-75
2021/10/06 10:14:51;;;;;;;2.63;1.90;;;15.10;99.90;;;;;;5050861;28;20502;-75
2021/10/06 10:17:18;;;;;;;2.40;2.23;;;15.10;99.90;;;;;;5048246;28;20435;-75
2021/10/06 10:19:44;;;;;;;1.83;1.70;;;15.20;99.90;;;;;;5053688;28;20739;-74
2021/10/06 10:22:12;;;;;;;1.53;1.43;;;15.30;99.90;;;;;;5047877;28;20424;-75
2021/10/06 10:24:49;;;;;;;2.57;1.53;;;15.20;99.90;;;;;;5048421;28;20808;-75
2021/10/06 10:27:18;;;;;;;3.70;1.83;;;15.20;99.90;;;;;;5050765;28;20420;-75
2021/10/06 10:30:03;;;;;;;3.83;1.70;;;15.10;99.90;;;;;;5047681;28;20404;-75
2021/10/06 10:32:42;;;;;;;1.50;1.50;;;15.00;99.90;;;;;;5054414;28;20427;-76
2021/10/06 10:35:10;;;;;;;2.70;1.50;;;14.90;99.90;;;;;;5048203;28;20451;-74
2021/10/06 10:37:53;;;;;;;3.20;1.70;;;14.70;99.90;;;;;;5048583;28;20435;-74
2021/10/06 10:40:32;;;;;;;4.23;1.70;;;14.70;99.90;;;;;;5053907;28;20443;-75
2021/10/06 10:43:12;;;;;;;2.07;1.50;;;14.70;99.90;;;;;;5052633;28;20487;-75
2021/10/06 10:45:47;;;;;;;1.60;1.50;;;14.70;99.90;;;;;;5057318;28;20396;-75
2021/10/06 10:48:15;;;;;;;1.53;1.43;;;14.70;99.90;;;;;;5058796;28;20510;-75
2021/10/06 10:50:44;;;;;;;1.50;1.40;;;14.70;99.90;;;;;;5054132;28;20399;-75
2021/10/06 10:53:11;;;;;;;1.87;1.77;;;14.70;99.90;;;;;;5052989;28;20447;-75
2021/10/06 10:55:55;;;;;;;4.10;1.77;;;15.00;99.90;;;;;;5055829;28;20469;-75
2021/10/06 10:58:29;;;;;;;1.97;1.40;;;15.60;99.90;;;;;;5049483;28;20429;-75
2021/10/06 11:01:00;;;;;;;1.70;1.43;;;16.00;99.90;;;;;;5048921;28;20430;-75
2021/10/06 11:03:26;;;;;;;1.43;1.30;;;16.20;99.90;;;;;;5050426;28;20462;-75
2021/10/06 11:05:53;;;;;;;1.23;1.13;;;16.10;99.90;;;;;;5048134;28;20432;-75
2021/10/06 11:08:27;;;;;;;1.40;1.30;;;15.80;99.90;;;;;;5045210;28;20471;-75
2021/10/06 11:11:11;;;;;;;1.23;1.17;;;15.60;99.90;;;;;;5047617;28;20974;-73
2021/10/06 11:13:41;;;;;;;1.90;1.33;;;15.30;99.90;;;;;;5042499;28;20435;-73
2021/10/06 11:16:08;;;;;;;1.90;1.30;;;15.10;99.90;;;;;;5044475;28;20431;-71
2021/10/06 11:18:56;;;;;;;2.00;1.17;;;15.10;99.90;;;;;;5043881;28;20419;-71
2021/10/06 11:21:32;;;;;;;1.43;1.33;;;15.10;99.90;;;;;;5042782;28;20452;-71
2021/10/06 11:23:58;;;;;;;1.30;1.20;;;15.10;99.90;;;;;;5042225;28;20486;-71
2021/10/06 11:26:32;;;;;;;2.63;1.40;;;15.10;99.90;;;;;;5044041;28;20519;-71
2021/10/06 11:29:00;;;;;;;1.27;1.17;;;15.10;99.90;;;;;;5044000;28;20203;-71
2021/10/06 11:31:29;;;;;;;3.67;1.53;;;15.20;99.90;;;;;;5039768;28;20432;-72
2021/10/06 11:33:57;;;;;;;2.30;2.10;;;15.30;99.90;;;;;;5044920;28;20429;-71
2021/10/06 11:36:28;;;;;;;6.63;1.93;;;15.40;99.90;;;;;;5036858;28;20590;-71
2021/10/06 11:39:05;;;;;;;3.00;1.53;;;15.50;99.90;;;;;;5040659;28;20427;-71
2021/10/06 11:41:31;;;;;;;1.10;1.10;;;15.50;99.90;;;;;;5042950;28;20446;-71
2021/10/06 11:43:57;;;;;;;2.40;1.40;;;15.50;99.90;;;;;;5042602;28;20462;-71
2021/10/06 11:46:24;;;;;;;2.03;1.27;;;15.40;99.90;;;;;;5040288;28;20392;-72
2021/10/06 11:48:52;;;;;;;3.50;1.20;;;15.40;99.90;;;;;;5043230;28;20226;-71
2021/10/06 11:51:18;;;;;;;2.03;1.37;;;15.30;99.90;;;;;;5040381;28;20740;-71
2021/10/06 11:53:48;;;;;;;1.37;1.30;;;15.30;99.90;;;;;;5040674;28;20436;-71
2021/10/06 11:56:30;;;;;;;1.43;1.33;;;15.30;99.90;;;;;;5042104;28;20458;-71
2021/10/06 11:59:08;;;;;;;1.53;1.10;;;15.30;99.90;;;;;;5039894;28;20455;-71
2021/10/06 12:01:34;;;;;;;0.93;0.93;;;15.30;99.90;;;;;;5040458;28;20565;-70
2021/10/06 12:04:15;;;;;;;1.20;1.20;;;15.30;99.90;;;;;;5042428;28;20865;-71
2021/10/06 12:06:43;;;;;;;1.00;0.90;;;15.40;99.90;;;;;;5038316;28;20445;-71
2021/10/06 12:09:09;;;;;;;1.33;1.23;;;15.40;99.90;;;;;;5043681;28;20411;-71
2021/10/06 12:11:41;;;;;;;6.30;1.60;;;15.30;99.90;;;;;;5041857;28;20446;-71
2021/10/06 12:14:31;;;;;;;11.30;2.23;;;15.30;99.90;;;;;;5041581;28;20455;-71
2021/10/06 12:17:11;;;;;;;4.80;1.40;;;15.30;99.90;;;;;;5040154;28;20420;-72
2021/10/06 12:19:38;;;;;;;1.77;1.30;;;15.30;99.90;;;;;;5043721;28;20426;-71
2021/10/06 12:22:06;;;;;;;1.40;1.30;;;15.30;99.90;;;;;;5042911;28;20495;-71
2021/10/06 12:24:35;;;;;;;1.50;1.40;;;15.30;99.90;;;;;;5043401;28;20206;-71
2021/10/06 12:27:01;;;;;;;2.80;0.97;;;15.30;99.90;;;;;;5042197;28;20505;-72
2021/10/06 12:29:29;;;;;;;1.33;1.20;;;15.20;99.90;;;;;;5041189;28;20575;-71
2021/10/06 12:32:14;;;;;;;1.33;1.33;;;15.20;99.90;;;;;;5043386;28;20280;-71
2021/10/06 12:34:41;;;;;;;1.37;1.27;;;15.10;99.90;;;;;;5042428;28;20452;-71
2021/10/06 12:37:07;;;;;;;1.70;1.27;;;15.10;99.90;;;;;;5040513;28;20551;-71
2021/10/06 12:39:34;;;;;;;1.40;1.30;;;15.10;99.90;;;;;;5043568;28;20527;-71
2021/10/06 12:42:02;;;;;;;2.00;1.37;;;15.10;99.90;;;;;;5043689;28;20405;-71
2021/10/06 12:44:47;;;;;;;1.73;1.27;;;15.00;99.90;;;;;;5043064;28;20922;-71
2021/10/06 12:47:17;;;;;;;2.57;1.30;;;14.90;99.90;;;;;;5041372;28;20431;-71